Terminal Aerodrome Forecast
Issued by NWS Wichita, KS

Home | Current Version | Previous Version | Graphics & Text | Print | Product List | Glossary On
Versions: 1 2 3 4 5 6 7 8 9 10 11 12 13 14 15
000
FTUS43 KICT 281740
TAFICT
TAF
KICT 281740Z 2818/2918 19017KT P6SM BKN300
     FM282300 19009KT P6SM BKN300=

USA.gov is the U.S. government's official web portal to all federal, state and local government web resources and services.